Time;durP1;ratioP1;P1;durP2;ratioP2;P2;SDS_P1;SDS_P2;PMS_P1;PMS_P2;Temp;Humidity;BMP_temperature;BMP_pressure;BME280_temperature;BME280_humidity;BME280_pressure;Samples;Min_cycle;Max_cycle;Signal;HPM_P1;HPM_P2
2022/09/29 00:01:07;;;;;;;7.03;4.60;;;;;;;15.94;67.13;98411.44;5010754;28;20029;-82
2022/09/29 00:03:33;;;;;;;7.20;5.00;;;;;;;15.62;67.27;98420.53;5012698;28;20415;-82
2022/09/29 00:05:59;;;;;;;9.90;5.18;;;;;;;15.92;66.03;98387.66;5012132;28;20508;-82
2022/09/29 00:08:27;;;;;;;7.75;5.05;;;;;;;16.21;65.67;98405.47;5012403;28;20029;-82
2022/09/29 00:10:52;;;;;;;8.52;4.78;;;;;;;15.91;66.47;98412.25;5024196;28;20025;-82
2022/09/29 00:13:18;;;;;;;6.63;4.97;;;;;;;15.55;67.62;98386.69;5030632;28;20036;-82
2022/09/29 00:15:44;;;;;;;10.02;5.07;;;;;;;15.69;68.34;98409.31;5031078;28;20036;-82
2022/09/29 00:18:10;;;;;;;15.40;5.47;;;;;;;15.63;68.75;98408.09;5014919;28;20420;-82
2022/09/29 00:20:36;;;;;;;9.95;5.18;;;;;;;15.57;69.06;98402.03;5012152;28;20480;-83
2022/09/29 00:23:02;;;;;;;10.32;5.78;;;;;;;15.72;68.15;98382.34;5010896;28;20405;-82
2022/09/29 00:25:29;;;;;;;10.05;5.13;;;;;;;15.71;68.40;98397.66;5011363;28;20056;-82
2022/09/29 00:27:54;;;;;;;10.07;6.85;;;;;;;15.74;68.87;98413.75;5011811;28;20412;-83
2022/09/29 00:30:20;;;;;;;11.70;5.82;;;;;;;15.82;68.12;98404.13;5010648;28;20025;-82
2022/09/29 00:32:45;;;;;;;9.43;6.75;;;;;;;15.48;69.92;98400.75;5006746;28;20030;-83
2022/09/29 00:35:11;;;;;;;11.30;6.13;;;;;;;15.10;70.76;98367.16;5010759;28;20034;-82
2022/09/29 00:37:36;;;;;;;10.95;6.38;;;;;;;15.06;72.37;98397.28;5012154;28;20022;-82
2022/09/29 00:40:03;;;;;;;8.80;6.35;;;;;;;14.95;72.73;98367.03;5012166;28;20093;-82
2022/09/29 00:42:31;;;;;;;7.75;5.68;;;;;;;15.28;71.21;98376.50;5027034;28;20029;-82
2022/09/29 00:45:05;;;;;;;13.25;6.03;;;;;;;15.58;69.70;98374.63;5010478;28;20560;-82
2022/09/29 00:47:35;;;;;;;9.52;5.55;;;;;;;15.79;68.69;98388.00;5010528;28;20026;-82
2022/09/29 00:50:13;;;;;;;6.55;4.63;;;;;;;15.86;68.60;98393.66;5011485;28;20060;-82
2022/09/29 00:52:49;;;;;;;8.88;4.82;;;;;;;15.73;68.81;98400.88;5011306;28;20508;-82
2022/09/29 00:55:27;;;;;;;9.25;5.10;;;;;;;15.79;68.11;98390.81;5011676;28;20056;-82
2022/09/29 00:57:58;;;;;;;10.18;4.13;;;;;;;15.85;68.17;98392.06;5009874;28;20057;-82
2022/09/29 01:00:25;;;;;;;10.18;4.93;;;;;;;15.84;67.75;98378.34;5011714;28;20409;-82
2022/09/29 01:03:00;;;;;;;12.18;4.78;;;;;;;15.61;68.41;98404.03;5010295;28;20061;-82
2022/09/29 01:05:31;;;;;;;7.50;5.00;;;;;;;15.46;68.63;98414.44;5009928;28;20077;-82
2022/09/29 01:08:01;;;;;;;6.25;5.03;;;;;;;15.66;67.38;98423.38;5010269;28;20022;-82
2022/09/29 01:10:27;;;;;;;;;;;;;;;14.88;69.92;98426.91;5011227;28;20475;-82
2022/09/29 01:12:52;;;;;;;7.45;5.90;;;;;;;14.46;71.58;98428.91;5014273;28;20012;-82
2022/09/29 01:15:19;;;;;;;7.93;5.43;;;;;;;14.31;72.02;98416.72;5013782;28;20388;-82
2022/09/29 01:17:46;;;;;;;7.18;4.95;;;;;;;13.95;74.35;98421.13;5014130;28;20117;-83
2022/09/29 01:20:15;;;;;;;7.47;5.22;;;;;;;14.30;73.66;98425.53;5014182;28;20061;-82
2022/09/29 01:23:21;;;;;;;11.63;5.40;;;;;;;14.11;73.90;98435.78;5014192;28;20022;-82
2022/09/29 01:26:09;;;;;;;7.97;5.05;;;;;;;13.96;74.48;98432.00;5014099;28;20057;-82
2022/09/29 01:28:55;;;;;;;6.00;4.95;;;;;;;13.89;74.96;98443.16;5013961;28;20029;-82
2022/09/29 01:31:33;;;;;;;5.95;4.80;;;;;;;13.84;74.87;98438.69;4994323;28;20484;-82
2022/09/29 01:34:23;;;;;;;10.85;5.13;;;;;;;13.36;77.31;98439.22;5024673;28;20492;-83
2022/09/29 01:37:21;;;;;;;6.55;5.07;;;;;;;13.46;77.00;98443.41;5013882;28;20032;-82
2022/09/29 01:39:50;;;;;;;7.20;5.10;;;;;;;13.51;76.74;98447.88;5013712;28;20078;-82
2022/09/29 01:42:25;;;;;;;7.55;4.55;;;;;;;13.70;75.49;98463.78;5013654;28;20022;-83
2022/09/29 01:45:01;;;;;;;14.93;7.53;;;;;;;13.75;74.15;98452.22;5014976;28;20076;-83
2022/09/29 01:47:41;;;;;;;13.40;4.85;;;;;;;13.60;74.96;98463.25;5013634;28;20037;-82
2022/09/29 01:50:16;;;;;;;8.90;4.53;;;;;;;13.49;75.25;98453.88;5013133;28;20493;-82
2022/09/29 01:52:47;;;;;;;4.30;3.90;;;;;;;13.32;76.46;98443.97;4993903;28;20035;-83
2022/09/29 01:55:17;;;;;;;6.75;4.55;;;;;;;13.65;75.23;98469.75;4993900;28;20093;-83
2022/09/29 01:57:49;;;;;;;7.07;5.00;;;;;;;14.04;73.81;98475.06;4993669;28;20129;-82
2022/09/29 02:00:17;;;;;;;32.97;16.73;;;;;;;14.27;72.69;98460.06;5010038;28;20034;-82
2022/09/29 02:02:54;;;;;;;34.78;15.35;;;;;;;14.48;71.76;98469.91;5029434;28;20065;-83
2022/09/29 02:05:22;;;;;;;8.95;5.38;;;;;;;13.70;75.30;98467.44;5013266;28;20034;-82
2022/09/29 02:07:49;;;;;;;14.02;4.55;;;;;;;14.04;73.81;98473.06;5013466;28;20412;-82
2022/09/29 02:10:24;;;;;;;5.60;5.03;;;;;;;13.84;74.84;98466.78;5012896;28;20041;-82
2022/09/29 02:12:52;;;;;;;9.80;4.70;;;;;;;14.18;73.20;98461.19;5013194;28;20409;-83
2022/09/29 02:15:25;;;;;;;5.95;4.30;;;;;;;13.87;74.61;98451.97;5012850;28;20034;-82
2022/09/29 02:17:56;;;;;;;4.40;4.00;;;;;;;14.21;73.04;98461.59;5013119;28;20026;-82
2022/09/29 02:20:22;;;;;;;4.80;3.90;;;;;;;14.38;72.39;98448.94;5014288;28;20022;-82
2022/09/29 02:22:47;;;;;;;10.05;5.13;;;;;;;14.43;71.91;98457.81;5012064;28;20397;-83
2022/09/29 02:25:16;;;;;;;7.53;4.43;;;;;;;14.49;71.89;98452.66;5012757;28;20033;-83
2022/09/29 02:27:42;;;;;;;9.25;4.63;;;;;;;14.50;71.81;98461.94;5013965;28;20030;-83
2022/09/29 02:30:09;;;;;;;8.02;5.10;;;;;;;14.07;74.01;98460.25;5012787;28;20062;-83
2022/09/29 02:32:35;;;;;;;10.20;5.55;;;;;;;13.81;75.32;98467.56;5013705;28;20030;-83
2022/09/29 02:35:04;;;;;;;7.15;4.72;;;;;;;13.88;75.83;98478.09;5013802;28;20404;-83
2022/09/29 02:37:42;;;;;;;8.20;5.28;;;;;;;13.55;76.73;98477.66;5012716;28;20054;-83
2022/09/29 02:40:25;;;;;;;5.53;5.03;;;;;;;13.39;78.03;98485.38;5012217;28;20029;-83
2022/09/29 02:43:05;;;;;;;9.55;5.35;;;;;;;13.81;76.32;98492.84;5028780;28;20481;-83
2022/09/29 02:46:05;;;;;;;7.35;4.72;;;;;;;14.04;74.43;98483.50;5028526;28;20038;-83
2022/09/29 02:48:36;;;;;;;7.10;4.38;;;;;;;14.31;73.37;98487.06;5013836;28;20040;-83
2022/09/29 02:51:22;;;;;;;8.63;4.95;;;;;;;14.55;72.30;98475.63;5011817;28;20042;-83
2022/09/29 02:54:17;;;;;;;12.50;4.88;;;;;;;14.43;71.63;98479.53;5001420;28;20092;-83
2022/09/29 02:56:59;;;;;;;6.30;4.40;;;;;;;14.13;72.53;98481.22;5013411;28;20110;-83
2022/09/29 02:59:32;;;;;;;6.82;5.05;;;;;;;14.31;71.68;98477.78;5012364;28;20115;-83
2022/09/29 03:01:57;;;;;;;9.43;5.30;;;;;;;14.23;71.92;98460.03;5012122;28;20024;-83
2022/09/29 03:04:25;;;;;;;11.73;4.72;;;;;;;14.38;71.30;98472.25;5013095;28;20021;-83
2022/09/29 03:06:52;;;;;;;11.40;4.72;;;;;;;14.51;70.93;98483.22;5012197;28;20036;-83
2022/09/29 03:09:18;;;;;;;11.80;10.60;;;;;;;14.60;69.74;98458.41;5013616;28;20029;-83
2022/09/29 03:11:43;;;;;;;10.10;5.43;;;;;;;14.44;70.13;98453.03;5013093;28;20026;-83
2022/09/29 03:14:09;;;;;;;6.97;5.43;;;;;;;13.90;72.02;98442.78;5013127;28;20022;-83
2022/09/29 03:16:34;;;;;;;9.15;5.57;;;;;;;13.92;72.58;98433.16;5011995;28;20554;-83
2022/09/29 03:19:00;;;;;;;14.40;6.20;;;;;;;14.17;71.73;98434.25;5012115;28;20041;-83
2022/09/29 03:21:26;;;;;;;7.15;5.55;;;;;;;14.30;71.00;98426.38;5028410;28;20017;-83
2022/09/29 03:23:52;;;;;;;6.07;4.78;;;;;;;14.49;69.73;98437.81;5013231;28;20044;-83
2022/09/29 03:26:17;;;;;;;7.15;5.18;;;;;;;14.54;70.29;98462.75;5011004;28;20038;-83
2022/09/29 03:28:43;;;;;;;8.50;5.43;;;;;;;13.98;71.79;98460.53;5011723;28;20488;-83
2022/09/29 03:31:09;;;;;;;7.50;5.53;;;;;;;13.89;72.67;98480.53;5013020;28;20057;-83
2022/09/29 03:33:37;;;;;;;9.00;6.63;;;;;;;13.92;73.20;98478.13;5011597;28;20022;-83
2022/09/29 03:36:04;;;;;;;11.35;6.53;;;;;;;13.42;75.12;98487.47;5011684;28;20061;-82
2022/09/29 03:38:31;;;;;;;7.32;5.82;;;;;;;13.63;75.09;98478.56;5012762;28;20049;-83
2022/09/29 03:40:56;;;;;;;8.88;5.65;;;;;;;13.95;72.92;98475.38;5020343;28;20075;-83
2022/09/29 03:43:22;;;;;;;10.10;6.15;;;;;;;14.10;72.08;98475.53;5031217;28;20488;-82
2022/09/29 03:45:52;;;;;;;8.43;5.97;;;;;;;13.87;72.53;98477.25;5025093;28;20514;-83
2022/09/29 03:48:19;;;;;;;13.63;6.20;;;;;;;13.93;72.68;98485.38;5011482;28;20026;-83
2022/09/29 03:50:46;;;;;;;7.00;5.70;;;;;;;13.67;73.03;98484.22;5011827;28;20061;-83
2022/09/29 03:53:12;;;;;;;10.98;6.05;;;;;;;13.70;73.44;98480.66;5012516;28;20029;-83
2022/09/29 03:55:38;;;;;;;6.70;5.63;;;;;;;13.66;72.79;98479.81;5011538;28;20405;-83
2022/09/29 03:58:03;;;;;;;11.50;6.13;;;;;;;13.68;73.23;98466.97;5013184;28;20172;-82
2022/09/29 04:00:29;;;;;;;8.68;5.85;;;;;;;13.54;73.77;98459.19;5012964;28;20091;-83
2022/09/29 04:02:54;;;;;;;7.40;5.57;;;;;;;13.87;73.16;98477.25;5013926;28;20049;-83
2022/09/29 04:05:20;;;;;;;9.88;5.78;;;;;;;13.83;73.12;98484.84;5012951;28;20022;-83
2022/09/29 04:07:46;;;;;;;15.10;6.18;;;;;;;13.50;74.89;98482.78;5013123;28;20109;-83
2022/09/29 04:10:11;;;;;;;8.07;5.10;;;;;;;13.54;75.45;98506.94;5015274;28;20105;-82
2022/09/29 04:12:37;;;;;;;11.48;5.57;;;;;;;13.65;74.71;98504.28;5011573;28;20065;-82
2022/09/29 04:15:03;;;;;;;21.10;5.43;;;;;;;13.20;76.54;98495.53;5027218;28;20511;-83
2022/09/29 04:17:28;;;;;;;12.77;6.75;;;;;;;12.66;79.69;98483.41;5010477;28;20115;-83
2022/09/29 04:19:54;;;;;;;12.02;5.88;;;;;;;12.73;80.36;98509.59;5010569;28;20032;-83
2022/09/29 04:22:20;;;;;;;8.75;5.30;;;;;;;12.53;79.35;98479.97;5010614;28;20083;-83
2022/09/29 04:24:47;;;;;;;9.80;5.30;;;;;;;12.20;81.61;98513.81;5010569;28;20037;-83
2022/09/29 04:27:13;;;;;;;24.00;6.72;;;;;;;12.30;81.72;98534.00;5010627;28;20488;-83
2022/09/29 04:29:39;;;;;;;13.32;5.90;;;;;;;12.40;80.19;98532.63;5010615;28;20022;-83
2022/09/29 04:32:05;;;;;;;10.52;5.20;;;;;;;12.44;80.41;98544.72;5010735;28;20033;-83
2022/09/29 04:34:31;;;;;;;6.82;5.22;;;;;;;12.33;80.11;98550.13;5011108;28;20377;-83
2022/09/29 04:36:56;;;;;;;10.70;6.95;;;;;;;12.39;79.87;98565.44;5010545;28;20021;-83
2022/09/29 04:39:22;;;;;;;15.95;7.63;;;;;;;12.41;80.10;98570.69;5010089;28;20137;-83
2022/09/29 04:41:47;;;;;;;25.48;8.43;;;;;;;12.24;80.63;98557.94;5010429;28;20018;-83
2022/09/29 04:44:13;;;;;;;16.55;7.18;;;;;;;12.04;82.58;98550.31;5011869;28;20034;-83
2022/09/29 04:46:38;;;;;;;7.47;6.28;;;;;;;12.23;81.93;98559.91;5009735;28;20535;-83
2022/09/29 04:49:04;;;;;;;25.75;7.07;;;;;;;12.30;81.54;98553.63;5026592;28;20068;-83
2022/09/29 04:51:29;;;;;;;11.05;6.57;;;;;;;12.20;82.30;98546.63;5026482;28;20082;-83
2022/09/29 04:53:57;;;;;;;9.68;6.72;;;;;;;12.34;82.63;98534.91;5011490;28;20022;-83
2022/09/29 04:56:22;;;;;;;14.07;7.90;;;;;;;12.47;81.92;98530.75;5010215;28;20425;-83
2022/09/29 04:58:48;;;;;;;13.13;6.07;;;;;;;12.73;80.69;98528.41;5009949;28;20050;-83
2022/09/29 05:01:15;;;;;;;17.45;7.30;;;;;;;12.85;80.13;98547.91;5011345;28;20029;-83
2022/09/29 05:03:41;;;;;;;9.63;6.13;;;;;;;13.06;79.69;98547.47;5010322;28;20033;-82
2022/09/29 05:06:08;;;;;;;15.02;6.43;;;;;;;13.26;79.16;98550.19;5010114;28;20602;-82
2022/09/29 05:08:34;;;;;;;10.52;6.20;;;;;;;13.52;77.88;98562.69;5010172;28;20160;-83
2022/09/29 05:11:05;;;;;;;7.10;5.22;;;;;;;13.73;77.11;98564.19;5011547;28;20109;-81
2022/09/29 05:13:30;;;;;;;17.40;6.22;;;;;;;13.80;76.80;98564.31;5011711;28;20125;-82
2022/09/29 05:15:56;;;;;;;9.40;4.97;;;;;;;14.03;75.67;98557.81;5023390;28;20089;-82
2022/09/29 05:18:22;;;;;;;25.60;5.47;;;;;;;14.08;75.05;98560.25;5026598;28;20023;-82
2022/09/29 05:20:48;;;;;;;17.98;5.50;;;;;;;14.03;74.80;98560.63;5009986;28;20504;-81
2022/09/29 05:23:13;;;;;;;7.55;4.85;;;;;;;14.09;74.64;98547.81;5010162;28;20064;-82
2022/09/29 05:25:39;;;;;;;10.52;5.43;;;;;;;14.22;74.68;98548.41;5021913;28;20022;-83
2022/09/29 05:28:05;;;;;;;6.03;4.63;;;;;;;14.13;74.01;98540.25;5001360;28;20443;-84
2022/09/29 05:30:30;;;;;;;12.60;5.88;;;;;;;14.20;73.46;98521.84;5010826;28;20033;-83
2022/09/29 05:32:56;;;;;;;8.82;5.05;;;;;;;14.60;72.20;98552.06;5009642;28;20037;-84
2022/09/29 05:35:21;;;;;;;8.43;4.15;;;;;;;14.93;70.93;98546.81;5009558;28;20139;-84
2022/09/29 05:37:47;;;;;;;4.72;4.03;;;;;;;15.07;70.69;98545.31;5009102;28;20034;-83
2022/09/29 05:40:12;;;;;;;14.70;4.47;;;;;;;15.08;70.58;98546.94;5009419;28;20416;-83
2022/09/29 05:42:39;;;;;;;13.80;4.75;;;;;;;15.29;69.77;98546.34;5010624;28;20026;-83
2022/09/29 05:45:09;;;;;;;5.55;4.38;;;;;;;15.26;69.79;98547.91;5010635;28;20025;-83
2022/09/29 05:47:34;;;;;;;5.93;3.92;;;;;;;15.28;69.48;98539.88;5009621;28;20034;-83
2022/09/29 05:50:02;;;;;;;9.73;4.18;;;;;;;15.57;69.06;98534.47;5009138;28;20021;-83
2022/09/29 05:52:27;;;;;;;7.63;3.95;;;;;;;15.52;68.41;98512.28;5009024;28;20045;-84
2022/09/29 05:54:52;;;;;;;4.60;3.88;;;;;;;15.81;67.43;98509.66;5009292;28;20029;-83
2022/09/29 05:57:18;;;;;;;8.10;4.05;;;;;;;15.65;68.32;98501.50;5010616;28;20057;-83
2022/09/29 05:59:43;;;;;;;13.05;4.40;;;;;;;16.01;67.38;98515.00;5013013;28;20096;-83
2022/09/29 06:02:09;;;;;;;25.83;6.15;;;;;;;16.38;66.23;98525.25;5011361;28;20736;-83
2022/09/29 06:04:34;;;;;;;14.13;4.68;;;;;;;16.22;65.96;98505.03;5011405;28;20056;-83
2022/09/29 06:07:00;;;;;;;11.45;4.47;;;;;;;16.75;65.49;98520.53;5009546;28;20121;-83
2022/09/29 06:09:26;;;;;;;12.65;5.63;;;;;;;16.84;64.56;98509.66;5030682;28;20040;-83
2022/09/29 06:11:51;;;;;;;9.15;4.70;;;;;;;16.95;64.54;98501.19;5015427;28;20445;-83
2022/09/29 06:14:17;;;;;;;6.88;4.00;;;;;;;17.20;64.35;98517.38;5011587;28;20037;-84
2022/09/29 06:16:43;;;;;;;15.77;5.43;;;;;;;17.58;63.35;98519.78;4995250;28;20248;-84
2022/09/29 06:19:09;;;;;;;21.67;5.18;;;;;;;17.77;61.69;98507.22;5014193;28;20084;-84
2022/09/29 06:21:36;;;;;;;12.63;4.40;;;;;;;17.91;61.11;98514.03;5009143;28;20038;-83
2022/09/29 06:24:03;;;;;;;38.78;7.80;;;;;;;17.95;61.12;98518.47;5026978;28;20038;-84
2022/09/29 06:26:29;;;;;;;11.70;5.00;;;;;;;17.83;60.55;98507.59;5011394;28;20044;-84
2022/09/29 06:28:55;;;;;;;11.82;4.13;;;;;;;18.30;60.45;98532.94;4999645;28;20660;-84
2022/09/29 06:31:24;;;;;;;7.45;4.45;;;;;;;18.31;59.85;98509.06;5013197;28;20091;-84
2022/09/29 06:33:50;;;;;;;7.82;3.45;;;;;;;17.97;60.59;98512.41;5017712;28;20037;-84
2022/09/29 06:39:09;;;;;;;17.40;4.80;;;;;;;17.77;61.43;98518.53;5014796;28;20037;-84
2022/09/29 06:41:34;;;;;;;4.47;3.33;;;;;;;18.13;60.26;98531.00;5012319;28;20022;-84
2022/09/29 06:44:01;;;;;;;6.20;2.72;;;;;;;18.24;59.80;98528.94;5028818;28;20412;-84
2022/09/29 06:46:27;;;;;;;8.57;3.22;;;;;;;18.31;59.26;98526.06;5013312;28;20520;-83
2022/09/29 06:48:53;;;;;;;3.08;2.55;;;;;;;18.43;58.68;98516.31;5012191;28;20180;-83
2022/09/29 06:51:21;;;;;;;3.92;2.70;;;;;;;18.84;57.52;98517.69;5011830;28;20042;-84
2022/09/29 06:53:47;;;;;;;3.35;2.60;;;;;;;19.05;56.39;98513.13;5012175;28;20018;-83
2022/09/29 06:56:13;;;;;;;10.88;3.63;;;;;;;19.08;57.20;98529.31;5013174;28;20080;-84
2022/09/29 06:58:39;;;;;;;4.90;2.60;;;;;;;19.35;55.71;98511.69;5012203;28;20061;-83
2022/09/29 07:01:05;;;;;;;4.75;2.78;;;;;;;19.26;55.49;98500.00;5001791;28;20037;-85
2022/09/29 07:03:31;;;;;;;11.05;2.88;;;;;;;19.66;55.66;98520.28;5011218;28;20034;-84
2022/09/29 07:05:56;;;;;;;3.25;2.83;;;;;;;19.46;56.18;98520.91;5012020;28;20029;-84
2022/09/29 07:08:22;;;;;;;7.03;2.63;;;;;;;19.44;56.34;98523.34;5006140;28;20068;-83
2022/09/29 07:10:47;;;;;;;6.32;2.88;;;;;;;19.67;55.43;98533.28;5014168;28;20033;-84
2022/09/29 07:13:13;;;;;;;12.13;3.17;;;;;;;19.63;56.06;98515.47;5012871;28;20030;-83
2022/09/29 07:15:38;;;;;;;5.38;3.63;;;;;;;19.88;56.69;98532.25;5011928;28;20530;-84
2022/09/29 07:18:04;;;;;;;3.80;3.15;;;;;;;20.09;56.40;98529.63;5011691;28;20026;-84
2022/09/29 07:20:30;;;;;;;4.43;2.92;;;;;;;19.83;56.07;98534.72;5010706;28;20091;-83
2022/09/29 07:22:57;;;;;;;3.78;2.97;;;;;;;19.96;55.46;98547.19;5011172;28;20459;-84
2022/09/29 07:25:23;;;;;;;3.25;2.95;;;;;;;19.92;55.00;98552.06;5027387;28;20048;-83
2022/09/29 07:27:50;;;;;;;6.38;3.10;;;;;;;20.12;54.44;98562.81;5011615;28;20026;-83
2022/09/29 07:30:17;;;;;;;4.95;3.67;;;;;;;20.18;55.08;98555.47;5012858;28;20022;-83
2022/09/29 07:32:42;;;;;;;5.47;4.13;;;;;;;20.10;55.63;98534.06;5011299;28;20076;-83
2022/09/29 07:35:08;;;;;;;7.90;3.53;;;;;;;20.28;55.61;98531.81;5023135;28;20120;-82
2022/09/29 07:37:34;;;;;;;5.25;3.28;;;;;;;20.15;55.05;98544.94;5011226;28;20469;-83
2022/09/29 07:40:00;;;;;;;7.30;2.88;;;;;;;20.55;55.34;98548.13;5011697;28;20026;-83
2022/09/29 07:42:27;;;;;;;6.43;2.53;;;;;;;20.42;54.84;98569.78;5011730;28;20040;-83
2022/09/29 07:44:52;;;;;;;3.90;2.15;;;;;;;20.62;53.69;98567.88;5013043;28;20113;-83
2022/09/29 07:47:18;;;;;;;4.38;2.50;;;;;;;20.57;52.44;98545.66;5011641;28;20061;-83
2022/09/29 07:49:44;;;;;;;15.52;2.92;;;;;;;20.40;53.57;98556.00;5011197;28;20032;-82
2022/09/29 07:52:09;;;;;;;7.13;3.10;;;;;;;20.09;54.92;98547.47;5011230;28;20060;-83
2022/09/29 07:54:35;;;;;;;10.80;2.92;;;;;;;20.33;54.85;98554.06;5011308;28;20116;-83
2022/09/29 07:57:02;;;;;;;7.57;3.80;;;;;;;20.84;54.17;98556.28;5012351;28;20536;-84
2022/09/29 07:59:28;;;;;;;9.30;4.00;;;;;;;21.41;52.44;98570.84;5011398;28;20030;-84
2022/09/29 08:01:54;;;;;;;16.33;7.85;;;;;;;21.38;51.89;98568.88;5008583;28;20022;-83
2022/09/29 08:04:20;;;;;;;10.38;6.22;;;;;;;21.40;51.13;98566.41;5008162;28;20030;-84
2022/09/29 08:06:46;;;;;;;12.25;4.63;;;;;;;21.62;50.68;98560.38;5006172;28;20026;-83
2022/09/29 08:09:12;;;;;;;6.60;3.47;;;;;;;21.94;51.58;98567.53;5010444;28;20480;-84
2022/09/29 08:11:40;;;;;;;3.50;2.78;;;;;;;22.06;51.33;98577.50;5009414;28;20036;-84
2022/09/29 08:14:07;;;;;;;4.25;2.38;;;;;;;22.33;50.15;98562.31;5011355;28;20093;-83
2022/09/29 08:16:33;;;;;;;5.15;3.03;;;;;;;22.49;49.46;98570.19;5009934;28;20105;-83
2022/09/29 08:19:00;;;;;;;7.22;3.50;;;;;;;22.61;47.76;98596.41;5012483;28;20415;-83
2022/09/29 08:21:26;;;;;;;7.93;3.60;;;;;;;22.05;48.56;98578.75;5010279;28;20116;-83
2022/09/29 08:23:51;;;;;;;6.47;3.42;;;;;;;22.75;48.12;98587.53;5010953;28;20040;-84
2022/09/29 08:26:19;;;;;;;4.65;3.10;;;;;;;22.83;46.78;98588.19;5002095;28;20047;-83
2022/09/29 08:28:46;;;;;;;6.20;3.25;;;;;;;22.96;47.46;98579.78;5005047;28;20109;-83
2022/09/29 08:31:21;;;;;;;6.80;2.80;;;;;;;23.28;46.01;98581.09;5011570;28;20412;-84
2022/09/29 08:33:51;;;;;;;6.13;2.92;;;;;;;23.42;45.52;98577.91;5007740;28;20014;-83
2022/09/29 08:36:18;;;;;;;4.80;2.65;;;;;;;23.75;45.03;98582.00;5003577;28;20463;-84
2022/09/29 08:38:52;;;;;;;4.65;2.85;;;;;;;23.81;44.72;98577.38;5011411;28;20409;-85
2022/09/29 08:41:20;;;;;;;9.43;2.33;;;;;;;23.95;44.01;98576.97;5010494;28;20032;-84
2022/09/29 08:43:50;;;;;;;8.30;2.40;;;;;;;24.03;44.89;98573.94;5012351;28;20438;-84
2022/09/29 08:46:47;;;;;;;2.95;2.30;;;;;;;23.81;45.07;98548.81;5010373;28;20029;-84
2022/09/29 08:49:29;;;;;;;3.92;2.80;;;;;;;23.35;45.46;98560.16;5006629;28;20037;-85
2022/09/29 08:52:01;;;;;;;6.20;2.63;;;;;;;22.98;45.64;98568.72;5004740;28;20029;-84
2022/09/29 08:54:32;;;;;;;5.07;2.22;;;;;;;23.73;44.86;98564.50;4999102;28;20022;-84
2022/09/29 08:56:58;;;;;;;6.90;2.70;;;;;;;23.96;45.08;98563.53;5009002;28;20057;-85
2022/09/29 08:59:26;;;;;;;3.05;2.47;;;;;;;24.09;43.66;98544.41;5009428;28;20030;-84
2022/09/29 09:02:16;;;;;;;7.55;2.30;;;;;;;24.13;43.24;98564.28;5026527;28;20396;-84
2022/09/29 09:04:51;;;;;;;9.65;2.20;;;;;;;24.54;42.76;98568.44;5011982;28;20026;-84
2022/09/29 09:07:25;;;;;;;3.38;2.45;;;;;;;24.70;42.34;98563.91;5018577;28;20117;-84
2022/09/29 09:09:55;;;;;;;4.38;2.17;;;;;;;24.96;41.57;98566.81;5007677;28;20101;-83
2022/09/29 09:12:32;;;;;;;4.35;2.60;;;;;;;25.07;41.84;98558.72;5008929;28;20133;-84
2022/09/29 09:15:29;;;;;;;6.22;2.17;;;;;;;24.99;42.63;98545.91;5022911;28;20025;-83
2022/09/29 09:18:09;;;;;;;4.28;2.10;;;;;;;25.12;41.88;98545.91;5010194;28;20026;-83
2022/09/29 09:20:52;;;;;;;3.45;2.03;;;;;;;24.87;41.85;98535.28;5004082;28;20022;-83
2022/09/29 09:23:24;;;;;;;5.50;2.28;;;;;;;24.90;42.23;98540.06;5011105;28;20022;-83
2022/09/29 09:26:01;;;;;;;6.15;3.45;;;;;;;24.81;42.55;98541.53;5003504;28;20508;-83
2022/09/29 09:28:36;;;;;;;7.35;2.92;;;;;;;24.77;42.36;98540.84;5007851;28;20041;-84
2022/09/29 09:31:14;;;;;;;5.80;2.20;;;;;;;24.70;42.71;98543.88;5010339;28;20080;-84
2022/09/29 09:33:48;;;;;;;6.57;2.42;;;;;;;24.73;42.42;98536.47;5014037;28;20037;-83
2022/09/29 09:36:20;;;;;;;6.10;2.78;;;;;;;24.45;42.06;98539.72;5013736;28;20500;-84
2022/09/29 09:39:05;;;;;;;7.95;2.63;;;;;;;24.76;42.03;98538.41;4998347;28;20053;-84
2022/09/29 09:41:33;;;;;;;13.50;3.28;;;;;;;24.96;41.96;98538.22;4998403;28;20029;-84
2022/09/29 09:44:12;;;;;;;7.20;2.70;;;;;;;25.12;41.48;98534.47;5012809;28;20040;-83
2022/09/29 09:46:46;;;;;;;4.88;2.47;;;;;;;25.06;40.72;98534.22;5012935;28;20104;-84
2022/09/29 09:49:28;;;;;;;6.63;2.85;;;;;;;25.16;41.07;98534.34;5015043;28;20032;-84
2022/09/29 09:52:21;;;;;;;8.18;2.47;;;;;;;25.11;41.08;98532.84;5012869;28;20172;-83
2022/09/29 09:54:53;;;;;;;3.80;2.55;;;;;;;24.98;41.34;98540.63;5012844;28;20083;-83
2022/09/29 09:57:30;;;;;;;4.80;2.67;;;;;;;25.16;41.05;98528.63;5029767;28;20045;-83
2022/09/29 10:00:12;;;;;;;5.10;2.38;;;;;;;25.44;40.73;98544.06;5004737;28;20021;-84
2022/09/29 10:02:50;;;;;;;4.50;2.65;;;;;;;25.40;40.53;98537.66;5013661;28;20685;-83
2022/09/29 10:05:23;;;;;;;5.40;3.13;;;;;;;25.21;40.10;98545.22;5014612;28;20022;-84
2022/09/29 10:07:49;;;;;;;7.20;3.28;;;;;;;25.19;41.52;98542.00;5012371;28;20117;-84
2022/09/29 10:10:18;;;;;;;7.88;2.72;;;;;;;25.57;39.90;98538.31;5012832;28;20026;-85
2022/09/29 10:12:44;;;;;;;6.70;2.75;;;;;;;25.67;40.16;98544.16;5012355;28;20496;-85
2022/09/29 10:15:28;;;;;;;3.72;2.60;;;;;;;25.53;40.00;98546.25;5012627;28;20037;-85
2022/09/29 10:18:06;;;;;;;6.45;2.65;;;;;;;25.76;38.71;98541.38;5009895;28;20054;-84
2022/09/29 10:20:34;;;;;;;5.25;2.72;;;;;;;25.88;38.64;98552.00;5008762;28;20061;-84
2022/09/29 10:23:27;;;;;;;3.75;2.53;;;;;;;26.08;38.15;98551.69;5013880;28;20112;-84
2022/09/29 10:26:15;;;;;;;6.18;2.80;;;;;;;26.25;37.53;98553.63;5012811;28;20034;-84
2022/09/29 10:28:49;;;;;;;4.47;2.25;;;;;;;26.33;37.97;98554.97;5037234;28;20018;-84
2022/09/29 10:31:27;;;;;;;4.47;2.70;;;;;;;26.48;37.06;98558.06;5008586;28;20567;-84
2022/09/29 10:33:59;;;;;;;10.05;3.10;;;;;;;26.31;38.44;98551.78;5012154;28;20486;-83
2022/09/29 10:36:28;;;;;;;3.97;2.20;;;;;;;26.56;36.45;98547.16;5011777;28;20514;-84
2022/09/29 10:38:55;;;;;;;17.10;3.67;;;;;;;26.54;37.11;98543.94;5018544;28;20033;-84
2022/09/29 10:41:20;;;;;;;11.27;2.30;;;;;;;26.67;37.44;98533.22;5013753;28;20037;-84
2022/09/29 10:43:48;;;;;;;5.97;3.30;;;;;;;26.53;36.67;98539.47;5010765;28;20025;-83
2022/09/29 10:46:34;;;;;;;7.28;2.75;;;;;;;26.73;36.70;98534.19;5013889;28;20271;-83
2022/09/29 10:49:09;;;;;;;2.97;2.65;;;;;;;26.91;36.39;98539.25;5013693;28;20022;-84
2022/09/29 10:51:35;;;;;;;4.50;3.22;;;;;;;26.98;36.55;98529.56;5012386;28;20018;-83
2022/09/29 10:54:13;;;;;;;15.32;3.08;;;;;;;27.15;36.96;98524.38;5013092;28;20025;-84
2022/09/29 10:56:46;;;;;;;8.70;2.90;;;;;;;27.13;36.46;98520.38;5012167;28;20049;-83
2022/09/29 10:59:13;;;;;;;8.95;3.25;;;;;;;27.18;37.01;98514.81;5012770;28;20512;-84
2022/09/29 11:01:49;;;;;;;6.63;3.42;;;;;;;27.15;36.47;98512.09;5012436;28;20022;-84
2022/09/29 11:04:36;;;;;;;7.65;3.20;;;;;;;27.31;35.79;98513.91;5010448;28;20070;-83
2022/09/29 11:07:09;;;;;;;4.68;3.67;;;;;;;27.22;36.15;98514.69;5010581;28;20110;-84
2022/09/29 11:09:38;;;;;;;13.40;3.67;;;;;;;27.08;36.88;98507.44;4999518;28;20416;-84
2022/09/29 11:12:04;;;;;;;7.03;3.55;;;;;;;27.04;36.65;98503.94;5011738;28;20030;-83
2022/09/29 11:14:36;;;;;;;7.40;3.45;;;;;;;27.13;36.64;98506.84;5010715;28;20970;-84
2022/09/29 11:17:19;;;;;;;12.45;3.85;;;;;;;27.08;36.88;98510.31;5028794;28;20030;-83
2022/09/29 11:19:45;;;;;;;9.88;3.35;;;;;;;26.82;36.97;98496.16;5027725;28;20558;-84
2022/09/29 11:22:32;;;;;;;5.88;3.15;;;;;;;26.83;37.83;98500.63;5011762;28;20029;-84
2022/09/29 11:25:18;;;;;;;7.65;2.47;;;;;;;27.14;36.77;98493.28;5016377;28;20025;-84
2022/09/29 11:28:35;;;;;;;13.75;3.58;;;;;;;27.24;36.03;98483.44;5011587;28;20516;-83
2022/09/29 11:31:26;;;;;;;33.33;15.00;;;;;;;27.37;35.92;98491.94;4974525;28;20022;-84
2022/09/29 11:34:04;;;;;;;19.75;14.43;;;;;;;27.23;35.52;98487.56;5014768;28;20049;-86
2022/09/29 11:36:37;;;;;;;13.32;10.57;;;;;;;27.44;36.14;98479.34;5003252;28;20049;-85
2022/09/29 11:39:47;;;;;;;15.50;11.48;;;;;;;27.35;35.89;98477.25;5012905;28;20485;-85
2022/09/29 11:42:24;;;;;;;14.00;7.28;;;;;;;27.30;35.71;98478.69;5003219;28;20034;-85
2022/09/29 11:45:02;;;;;;;5.90;4.35;;;;;;;27.32;35.28;98481.88;5025504;28;20492;-85
2022/09/29 11:47:52;;;;;;;9.70;4.38;;;;;;;27.49;35.54;98481.56;5011569;28;20040;-85
2022/09/29 11:50:26;;;;;;;11.93;6.80;;;;;;;27.64;34.93;98467.44;5012885;28;20101;-86